Time;durP1;ratioP1;P1;durP2;ratioP2;P2;SDS_P1;SDS_P2;PMS_P1;PMS_P2;Temp;Humidity;BMP_temperature;BMP_pressure;BME280_temperature;BME280_humidity;BME280_pressure;Samples;Min_cycle;Max_cycle;Signal;HPM_P1;HPM_P2
2022/10/25 05:05:00;;;;;;;18.35;7.30;;;;;;;12.55;100.00;101167.03;5051451;28;20578;-75
2022/10/25 05:07:26;;;;;;;22.38;8.13;;;;;;;12.54;100.00;101180.25;5051352;28;20041;-75
2022/10/25 05:09:51;;;;;;;26.33;10.27;;;;;;;12.60;100.00;101172.28;5055332;28;20032;-75
2022/10/25 05:12:16;;;;;;;23.55;8.27;;;;;;;12.56;100.00;101174.22;5090934;22;20021;-76
2022/10/25 05:14:42;;;;;;;19.98;7.35;;;;;;;12.53;100.00;101169.41;5054610;28;20037;-75
2022/10/25 05:17:08;;;;;;;17.88;7.35;;;;;;;12.58;100.00;101177.47;5058474;28;20530;-75
2022/10/25 05:19:33;;;;;;;22.65;9.05;;;;;;;12.60;100.00;101180.69;5060848;28;20044;-75
2022/10/25 05:21:58;;;;;;;26.15;8.57;;;;;;;12.56;100.00;101189.06;5059869;28;20120;-75
2022/10/25 05:24:24;;;;;;;18.17;8.13;;;;;;;12.57;100.00;101176.66;5055181;28;20059;-75
2022/10/25 05:26:49;;;;;;;26.33;9.10;;;;;;;12.54;100.00;101177.44;5055565;28;20036;-76
2022/10/25 05:29:14;;;;;;;18.77;8.20;;;;;;;12.58;100.00;101177.47;5046056;28;20677;-76
2022/10/25 05:31:40;;;;;;;19.75;9.15;;;;;;;12.56;100.00;101175.03;5051996;28;20116;-75
2022/10/25 05:34:06;;;;;;;18.40;7.90;;;;;;;12.56;100.00;101180.66;5059520;28;20024;-76
2022/10/25 05:36:32;;;;;;;22.58;8.65;;;;;;;12.59;100.00;101187.53;5050256;28;20029;-75
2022/10/25 05:38:59;;;;;;;21.88;8.50;;;;;;;12.52;100.00;101195.84;5052446;28;20028;-75
2022/10/25 05:41:25;;;;;;;26.92;8.65;;;;;;;12.45;100.00;101190.16;5049581;28;20035;-75
2022/10/25 05:43:51;;;;;;;16.00;8.20;;;;;;;12.47;100.00;101194.19;5061136;28;20029;-75
2022/10/25 05:46:20;;;;;;;23.38;8.50;;;;;;;12.52;100.00;101195.84;5057168;28;20086;-76
2022/10/25 05:48:46;;;;;;;19.48;9.32;;;;;;;12.48;100.00;101197.81;5044397;28;20140;-75
2022/10/25 05:51:21;;;;;;;22.23;9.63;;;;;;;12.50;100.00;101198.22;5054409;28;20032;-76
2022/10/25 05:53:49;;;;;;;15.55;7.78;;;;;;;12.49;100.00;101194.63;5058534;28;20668;-75
2022/10/25 05:56:15;;;;;;;20.45;8.90;;;;;;;12.52;100.00;101190.22;5054914;28;20023;-76
2022/10/25 05:58:41;;;;;;;28.95;9.27;;;;;;;12.54;100.00;101194.28;5063194;28;20043;-76
2022/10/25 06:01:08;;;;;;;27.23;9.70;;;;;;;12.55;100.00;101197.91;5059057;28;20036;-76
2022/10/25 06:03:34;;;;;;;22.15;10.02;;;;;;;12.53;100.00;101197.47;5031873;28;20032;-76
2022/10/25 06:06:06;;;;;;;28.55;8.60;;;;;;;12.47;100.00;101207.44;5039211;28;20712;-76
2022/10/25 06:08:32;;;;;;;18.95;9.05;;;;;;;12.43;100.00;101217.81;5037387;28;20052;-76
2022/10/25 06:11:02;;;;;;;18.25;9.32;;;;;;;12.44;100.00;101217.44;5049850;28;20039;-76
2022/10/25 06:13:29;;;;;;;20.75;9.32;;;;;;;12.65;100.00;101228.13;5049160;28;20040;-77
2022/10/25 06:15:54;;;;;;;22.30;8.20;;;;;;;12.78;100.00;101231.47;5050762;28;20455;-76
2022/10/25 06:18:20;;;;;;;21.58;8.20;;;;;;;12.81;100.00;101241.91;5057163;28;20107;-75
2022/10/25 06:20:45;;;;;;;25.30;9.70;;;;;;;12.77;100.00;101235.44;5058319;28;20036;-77
2022/10/25 06:23:10;;;;;;;15.10;8.23;;;;;;;12.70;100.00;101235.38;5054074;28;20036;-76
2022/10/25 06:25:36;;;;;;;19.38;9.45;;;;;;;12.61;100.00;101232.88;5052660;28;20059;-76
2022/10/25 06:28:01;;;;;;;21.58;8.40;;;;;;;12.58;100.00;101242.84;5038537;28;20464;-76
2022/10/25 06:30:27;;;;;;;25.35;9.20;;;;;;;12.60;100.00;101237.66;5056431;28;20031;-75
2022/10/25 06:32:53;;;;;;;20.75;9.48;;;;;;;12.57;100.00;101234.84;5064418;28;20038;-76
2022/10/25 06:35:19;;;;;;;26.27;10.32;;;;;;;12.58;100.00;101250.47;5056204;28;20393;-76
2022/10/25 06:37:44;;;;;;;24.98;10.02;;;;;;;12.61;100.00;101250.53;5048349;28;20146;-76
2022/10/25 06:40:10;;;;;;;130.70;18.42;;;;;;;12.85;100.00;101248.38;5069901;28;20031;-77
2022/10/25 06:42:35;;;;;;;43.85;11.50;;;;;;;12.76;100.00;101250.69;5053579;28;20371;-76
2022/10/25 06:45:00;;;;;;;42.50;10.77;;;;;;;12.70;100.00;101255.84;5058144;28;20036;-76
2022/10/25 06:47:25;;;;;;;32.53;11.68;;;;;;;12.63;100.00;101257.75;5060627;28;20028;-77
2022/10/25 06:49:51;;;;;;;36.45;11.35;;;;;;;12.63;100.00;101263.38;5056959;28;20377;-76
2022/10/25 06:52:16;;;;;;;31.10;11.73;;;;;;;12.67;100.00;101259.44;5064374;28;20036;-76
2022/10/25 06:54:41;;;;;;;32.35;10.52;;;;;;;12.61;100.00;101258.94;5064538;28;20059;-76
2022/10/25 06:57:07;;;;;;;29.42;12.23;;;;;;;12.59;100.00;101266.94;5066861;28;20020;-76
2022/10/25 06:59:32;;;;;;;34.10;13.05;;;;;;;12.66;100.00;101279.47;5049773;28;20533;-75
2022/10/25 07:01:57;;;;;;;30.70;9.90;;;;;;;12.68;100.00;101277.88;5057876;28;20366;-75
2022/10/25 07:04:23;;;;;;;31.13;12.05;;;;;;;12.71;100.00;101274.34;5061110;28;20029;-73
2022/10/25 07:06:48;;;;;;;27.98;12.13;;;;;;;12.74;100.00;101287.59;5057326;28;20024;-75
2022/10/25 07:09:14;;;;;;;23.80;11.07;;;;;;;12.73;100.00;101288.81;5063699;28;20039;-76
2022/10/25 07:11:40;;;;;;;26.98;10.82;;;;;;;12.72;100.00;101289.97;5058833;28;20066;-76
2022/10/25 07:14:05;;;;;;;23.45;11.13;;;;;;;12.74;100.00;101293.22;5055742;28;20056;-75
2022/10/25 07:16:31;;;;;;;24.42;10.90;;;;;;;12.77;100.00;101303.66;5054652;28;20032;-75
2022/10/25 07:18:58;;;;;;;29.58;13.35;;;;;;;12.78;100.00;101305.31;5056746;28;20025;-76
2022/10/25 07:21:24;;;;;;;27.58;10.82;;;;;;;12.82;100.00;101294.91;5056354;28;20824;-75
2022/10/25 07:23:50;;;;;;;31.13;12.88;;;;;;;12.87;100.00;101295.78;5062755;28;20023;-76
2022/10/25 07:26:18;;;;;;;24.90;10.63;;;;;;;12.84;100.00;101302.13;5051280;28;20056;-76
2022/10/25 07:28:45;;;;;;;27.05;12.77;;;;;;;12.90;100.00;101300.59;5059876;28;20502;-77
2022/10/25 07:31:22;;;;;;;31.02;12.65;;;;;;;12.88;100.00;101314.22;5039875;28;20017;-76
2022/10/25 07:33:50;;;;;;;24.35;12.35;;;;;;;12.90;100.00;101317.47;5057476;28;20036;-76
2022/10/25 07:36:15;;;;;;;27.52;13.50;;;;;;;12.93;100.00;101308.28;5053214;28;20456;-76
2022/10/25 07:38:40;;;;;;;27.75;11.95;;;;;;;12.99;100.00;101315.19;5036293;28;20602;-76
2022/10/25 07:41:06;;;;;;;26.92;12.10;;;;;;;13.01;100.00;101302.34;5064853;28;20541;-74
2022/10/25 07:43:33;;;;;;;34.92;13.55;;;;;;;13.04;100.00;101309.19;5064667;28;20027;-76
2022/10/25 07:45:58;;;;;;;33.92;13.50;;;;;;;13.09;100.00;101308.88;5061101;28;20422;-75
2022/10/25 07:48:23;;;;;;;23.40;12.05;;;;;;;13.10;100.00;101310.47;5063757;28;20032;-76
2022/10/25 07:50:49;;;;;;;26.48;11.95;;;;;;;13.15;100.00;101324.16;5067301;28;20029;-75
2022/10/25 07:53:14;;;;;;;37.28;11.98;;;;;;;13.16;100.00;101323.00;5045070;28;20103;-76
2022/10/25 07:55:39;;;;;;;19.90;10.48;;;;;;;13.13;100.00;101328.56;5059495;28;20032;-76
2022/10/25 07:58:07;;;;;;;25.55;12.80;;;;;;;13.16;100.00;101331.44;5065744;28;20178;-77
2022/10/25 08:00:34;;;;;;;20.92;11.85;;;;;;;13.17;100.00;101332.22;5064241;28;20475;-75
2022/10/25 08:03:00;;;;;;;26.75;11.07;;;;;;;13.18;100.00;101345.91;5060651;28;20024;-75
2022/10/25 08:05:25;;;;;;;20.30;10.18;;;;;;;13.18;100.00;101339.47;5058071;28;20032;-76
2022/10/25 08:07:51;;;;;;;16.80;9.38;;;;;;;13.17;100.00;101333.03;5063359;28;20071;-76
2022/10/25 08:10:20;;;;;;;20.48;9.10;;;;;;;13.21;100.00;101342.31;5051384;28;20361;-76
2022/10/25 08:12:49;;;;;;;20.88;9.77;;;;;;;13.26;100.00;101341.19;5061467;28;20674;-76
2022/10/25 08:15:15;;;;;;;18.33;10.88;;;;;;;13.27;100.00;101347.59;5064889;28;20515;-75
2022/10/25 08:17:40;;;;;;;27.17;10.18;;;;;;;13.28;100.00;101346.41;5065849;28;20027;-76
2022/10/25 08:20:06;;;;;;;24.10;9.10;;;;;;;13.29;100.00;101350.88;5058918;28;20032;-76
2022/10/25 08:22:31;;;;;;;23.60;9.88;;;;;;;13.28;100.00;101355.66;5059982;28;20111;-76
2022/10/25 08:24:56;;;;;;;30.00;9.32;;;;;;;13.34;100.00;101354.13;5066009;28;20052;-76
2022/10/25 08:27:22;;;;;;;26.58;10.45;;;;;;;13.35;100.00;101361.38;5061173;28;20044;-76
2022/10/25 08:29:47;;;;;;;24.10;9.65;;;;;;;13.39;100.00;101364.25;5063920;28;20438;-76
2022/10/25 08:32:13;;;;;;;21.48;9.82;;;;;;;13.39;100.00;101373.47;5055754;28;20116;-75
2022/10/25 08:34:38;;;;;;;14.80;8.40;;;;;;;13.41;100.00;101364.66;5060845;28;20620;-75
2022/10/25 08:37:04;;;;;;;29.73;10.85;;;;;;;13.48;100.00;101375.19;5063035;28;20031;-75
2022/10/25 08:39:29;;;;;;;17.95;9.75;;;;;;;13.47;100.00;101373.53;5066505;28;20295;-75
2022/10/25 08:41:57;;;;;;;23.63;10.32;;;;;;;13.46;100.00;101371.94;5062473;28;20032;-75
2022/10/25 08:44:46;;;;;;;22.88;9.25;;;;;;;13.45;100.00;101370.31;5060586;28;20037;-75
2022/10/25 08:47:26;;;;;;;24.23;9.30;;;;;;;13.44;100.00;101380.75;5066515;28;20067;-76
2022/10/25 08:50:13;;;;;;;13.57;8.10;;;;;;;13.48;100.00;101373.16;5063260;28;20028;-76
2022/10/25 08:52:55;;;;;;;21.48;8.90;;;;;;;13.49;100.00;101386.03;5048279;28;20030;-76
2022/10/25 08:55:30;;;;;;;22.90;8.48;;;;;;;13.51;100.00;101392.06;5061450;28;20063;-75
2022/10/25 08:57:55;;;;;;;19.98;8.20;;;;;;;13.59;100.00;101398.59;5068601;28;20115;-75
2022/10/25 09:00:23;;;;;;;15.57;8.90;;;;;;;13.61;100.00;101399.81;5064215;28;20104;-75
2022/10/25 09:02:57;;;;;;;16.33;9.07;;;;;;;13.67;100.00;101402.28;5064296;28;20024;-75
2022/10/25 09:05:36;;;;;;;16.95;7.45;;;;;;;13.68;100.00;101409.50;5066571;28;20036;-76
2022/10/25 09:08:21;;;;;;;15.38;7.50;;;;;;;13.77;100.00;101415.66;5068875;28;20036;-76
2022/10/25 09:10:51;;;;;;;16.13;7.78;;;;;;;13.75;100.00;101415.22;5041760;28;20051;-75
2022/10/25 09:13:32;;;;;;;18.67;7.78;;;;;;;13.72;100.00;101419.59;5060158;28;20041;-76
2022/10/25 09:16:11;;;;;;;17.55;8.48;;;;;;;13.72;100.00;101428.03;5065321;28;20055;-76
2022/10/25 09:19:11;;;;;;;20.77;7.50;;;;;;;13.67;100.00;101427.59;5063586;28;20028;-76
2022/10/25 09:21:41;;;;;;;14.98;8.27;;;;;;;13.68;100.00;101437.66;5061722;28;20510;-76
2022/10/25 09:24:09;;;;;;;16.80;7.25;;;;;;;13.68;100.00;101423.59;5066239;28;20024;-76
2022/10/25 09:26:39;;;;;;;17.58;8.30;;;;;;;13.71;100.00;101434.06;5060249;28;20122;-75
2022/10/25 09:29:14;;;;;;;18.80;8.57;;;;;;;13.85;100.00;101439.03;5068489;28;20020;-76
2022/10/25 09:31:44;;;;;;;12.75;7.28;;;;;;;13.88;100.00;101444.69;5058326;28;20046;-76
2022/10/25 09:34:10;;;;;;;15.98;7.35;;;;;;;13.77;100.00;101450.22;5065917;28;20104;-76
2022/10/25 09:37:05;;;;;;;16.77;6.60;;;;;;;13.74;100.00;101444.53;5065056;28;20107;-76
2022/10/25 09:40:03;;;;;;;14.05;6.57;;;;;;;13.79;100.00;101441.41;5064453;28;20179;-76
2022/10/25 09:42:37;;;;;;;12.43;6.72;;;;;;;13.81;100.00;101447.44;5043129;28;20068;-76
2022/10/25 09:45:15;;;;;;;14.57;6.50;;;;;;;13.85;100.00;101448.28;5061717;28;20047;-75
2022/10/25 09:48:10;;;;;;;13.43;5.95;;;;;;;13.92;100.00;101441.94;5063184;28;20032;-76
2022/10/25 09:50:43;;;;;;;13.57;6.57;;;;;;;13.83;100.00;101447.88;5064854;28;20037;-76
2022/10/25 09:53:11;;;;;;;16.75;6.55;;;;;;;13.87;100.00;101445.06;5067293;28;20020;-75
2022/10/25 09:55:53;;;;;;;12.90;6.63;;;;;;;13.83;100.00;101450.69;5069486;28;20542;-76
2022/10/25 09:58:25;;;;;;;15.60;7.18;;;;;;;13.90;100.00;101447.94;5066228;28;20024;-75
2022/10/25 10:00:52;;;;;;;14.02;6.35;;;;;;;13.96;100.00;101457.66;5062246;28;20028;-75
2022/10/25 10:03:19;;;;;;;12.45;6.38;;;;;;;13.95;100.00;101450.38;5061788;28;20353;-75
2022/10/25 10:05:58;;;;;;;12.45;5.90;;;;;;;13.94;100.00;101453.59;5064557;28;20036;-75
2022/10/25 10:08:24;;;;;;;14.95;6.88;;;;;;;13.93;100.00;101457.59;5061605;28;20032;-75
2022/10/25 10:10:53;;;;;;;13.45;5.72;;;;;;;13.98;100.00;101463.69;5066457;28;20025;-75
2022/10/25 10:13:30;;;;;;;16.85;6.50;;;;;;;13.93;100.00;101463.22;5061224;28;20112;-75
2022/10/25 10:16:05;;;;;;;12.57;6.28;;;;;;;13.95;100.00;101472.91;5044468;28;20035;-76
2022/10/25 10:18:34;;;;;;;16.35;5.85;;;;;;;13.99;100.00;101464.50;5057981;28;20056;-75
2022/10/25 10:21:13;;;;;;;15.65;6.80;;;;;;;13.98;100.00;101462.91;5061692;28;20031;-76
2022/10/25 10:23:41;;;;;;;18.48;6.03;;;;;;;13.97;100.00;101472.53;5063521;28;20553;-75
2022/10/25 10:26:54;;;;;;;13.60;6.40;;;;;;;13.96;100.00;101468.91;5065888;28;20365;-76
2022/10/25 10:29:21;;;;;;;13.43;6.22;;;;;;;14.08;100.00;101473.41;5063473;28;20379;-76
2022/10/25 10:31:52;;;;;;;13.88;6.07;;;;;;;14.15;100.00;101476.31;5067255;28;20040;-77
2022/10/25 10:34:24;;;;;;;13.30;6.07;;;;;;;14.19;100.00;101467.91;5061803;28;20041;-76
2022/10/25 10:37:13;;;;;;;9.23;5.38;;;;;;;14.20;100.00;101469.53;5067041;28;20650;-76
2022/10/25 10:40:08;;;;;;;11.23;5.20;;;;;;;14.34;100.00;101474.47;5062657;28;20635;-76
2022/10/25 10:42:40;;;;;;;11.65;5.65;;;;;;;14.30;100.00;101470.81;5044791;28;20036;-76
2022/10/25 10:45:08;;;;;;;11.00;4.85;;;;;;;14.35;100.00;101471.25;5064793;28;20031;-76
2022/10/25 10:47:44;;;;;;;11.60;5.28;;;;;;;14.40;100.00;101473.72;5059402;28;20039;-76
2022/10/25 10:50:21;;;;;;;10.30;4.90;;;;;;;14.43;100.00;101480.56;5070461;28;20029;-76
2022/10/25 10:53:01;;;;;;;13.43;4.90;;;;;;;14.52;100.00;101477.44;5063606;28;20348;-75
2022/10/25 10:55:34;;;;;;;13.45;5.43;;;;;;;14.52;100.00;101478.22;5057639;28;20123;-76
2022/10/25 10:58:38;;;;;;;10.18;4.30;;;;;;;14.50;100.00;101479.81;5066988;28;20028;-76
2022/10/25 11:01:09;;;;;;;12.98;5.18;;;;;;;14.53;100.00;101476.25;5059665;28;20367;-76
2022/10/25 11:03:55;;;;;;;9.55;5.03;;;;;;;14.67;99.87;101490.44;5057039;28;20029;-76
2022/10/25 11:06:28;;;;;;;9.70;4.38;;;;;;;14.82;99.13;101489.34;5066668;28;20074;-76
2022/10/25 11:09:23;;;;;;;12.30;5.15;;;;;;;14.75;99.41;101492.13;5064334;28;20056;-76
2022/10/25 11:12:05;;;;;;;11.48;4.53;;;;;;;14.68;98.14;101494.88;5066714;28;20139;-76
2022/10/25 11:14:31;;;;;;;9.90;4.95;;;;;;;14.71;99.33;101496.13;5061733;28;20646;-75
2022/10/25 11:17:15;;;;;;;11.15;3.72;;;;;;;14.72;99.48;101504.19;5066871;28;20123;-76
2022/10/25 11:20:18;;;;;;;8.38;3.95;;;;;;;14.59;99.02;101514.16;5057760;28;20081;-75
2022/10/25 11:23:07;;;;;;;6.75;4.80;;;;;;;14.53;100.00;101508.03;5068883;28;20024;-75
2022/10/25 11:26:06;;;;;;;7.68;4.78;;;;;;;14.51;99.95;101515.25;5061564;28;20541;-75
2022/10/25 11:28:57;;;;;;;15.52;4.25;;;;;;;14.73;98.75;101513.44;5060731;28;20116;-75
2022/10/25 11:31:45;;;;;;;7.53;4.13;;;;;;;14.70;98.58;101512.22;5064699;28;20566;-76
2022/10/25 11:34:27;;;;;;;6.40;3.85;;;;;;;14.59;99.56;101512.13;5071460;28;20071;-76
2022/10/25 11:36:53;;;;;;;6.05;3.72;;;;;;;14.48;100.00;101516.03;5055700;28;20044;-75
2022/10/25 11:39:36;;;;;;;12.98;4.25;;;;;;;14.55;99.83;101516.09;5072196;28;20016;-76
2022/10/25 11:42:07;;;;;;;;;;;;;;;14.58;99.80;101518.16;5066550;28;20027;-76
2022/10/25 11:45:09;;;;;;;12.90;4.82;;;;;;;14.62;99.76;101519.00;5059767;28;20375;-75
2022/10/25 11:48:09;;;;;;;11.27;4.20;;;;;;;14.62;99.53;101519.00;5058043;28;20033;-75
2022/10/25 11:50:58;;;;;;;17.75;5.18;;;;;;;14.71;99.86;101508.19;5054811;28;20033;-75
2022/10/25 11:54:00;;;;;;;10.15;4.60;;;;;;;14.77;99.23;101511.47;5057260;28;20559;-74
2022/10/25 11:57:04;;;;;;;10.23;4.77;;;;;;;14.71;99.21;101507.38;5057074;28;20039;-75
2022/10/25 11:59:47;;;;;;;6.97;4.22;;;;;;;14.78;98.03;101513.88;4972653;28;20070;-75
2022/10/25 12:02:33;;;;;;;9.30;4.72;;;;;;;14.71;98.16;101507.38;4966801;28;20580;-76
2022/10/25 12:05:36;;;;;;;9.90;4.10;;;;;;;14.80;97.86;101514.31;5033211;28;20345;-75
2022/10/25 12:08:27;;;;;;;10.43;4.10;;;;;;;14.97;97.17;101509.19;5061142;28;20020;-76
2022/10/25 12:11:06;;;;;;;11.10;4.45;;;;;;;14.96;97.06;101513.19;5068087;28;20529;-76
2022/10/25 12:13:36;;;;;;;15.70;4.60;;;;;;;15.04;96.48;101509.22;5058879;28;20055;-75
2022/10/25 12:16:08;;;;;;;11.68;3.88;;;;;;;15.28;94.70;101504.09;5039710;28;20255;-76
2022/10/25 12:18:43;;;;;;;8.30;4.22;;;;;;;15.34;95.19;101508.16;5063815;28;20099;-76
2022/10/25 12:21:15;;;;;;;12.02;4.57;;;;;;;15.45;94.62;101514.66;5060344;28;20021;-75
2022/10/25 12:23:45;;;;;;;10.63;3.72;;;;;;;15.24;93.17;101502.09;5056915;28;20029;-76
2022/10/25 12:26:25;;;;;;;7.88;4.63;;;;;;;15.29;93.14;101517.03;5058526;28;20412;-76
2022/10/25 12:28:52;;;;;;;7.32;4.45;;;;;;;15.17;93.39;101516.13;5055561;28;20066;-75
2022/10/25 12:31:25;;;;;;;8.95;4.32;;;;;;;15.13;93.91;101518.13;5044678;28;20028;-75
2022/10/25 12:34:11;;;;;;;7.68;5.05;;;;;;;15.14;94.93;101516.94;5061398;28;20035;-75
2022/10/25 12:36:42;;;;;;;10.77;4.22;;;;;;;15.18;94.57;101514.94;5049139;28;20028;-76
2022/10/25 12:39:40;;;;;;;10.32;4.38;;;;;;;15.34;95.83;101511.78;5055023;28;20427;-75
2022/10/25 12:42:26;;;;;;;6.80;5.03;;;;;;;15.35;93.82;101507.78;5059062;28;20039;-75
2022/10/25 12:44:51;;;;;;;8.95;4.20;;;;;;;15.43;92.90;101519.88;5043970;28;20060;-75
2022/10/25 12:47:55;;;;;;;8.07;4.20;;;;;;;15.43;92.50;101515.09;5049009;28;20095;-75
2022/10/25 12:50:41;;;;;;;13.05;5.13;;;;;;;15.57;92.17;101514.31;5054565;28;20055;-75
2022/10/25 12:53:30;;;;;;;13.65;5.18;;;;;;;15.50;93.13;101510.69;5041718;28;20029;-76
2022/10/25 12:56:14;;;;;;;10.10;4.80;;;;;;;15.49;93.02;101511.88;5058384;28;20032;-76
2022/10/25 12:58:55;;;;;;;8.27;4.90;;;;;;;15.44;91.57;101515.88;5059362;28;20033;-76
2022/10/25 13:01:49;;;;;;;8.25;4.13;;;;;;;15.42;91.58;101507.00;5062071;28;20043;-76
2022/10/25 13:04:39;;;;;;;10.93;5.07;;;;;;;15.46;90.88;101513.47;5063294;28;20028;-75
2022/10/25 13:07:06;;;;;;;10.80;5.22;;;;;;;15.33;92.04;101515.03;5036741;28;20028;-75
2022/10/25 13:09:34;;;;;;;13.85;4.30;;;;;;;15.38;93.34;101512.63;5062340;28;20117;-76
2022/10/25 13:12:18;;;;;;;9.88;4.57;;;;;;;15.55;90.65;101511.09;5061464;28;20469;-75
2022/10/25 13:14:46;;;;;;;8.73;4.57;;;;;;;15.50;92.17;101510.69;5051554;28;20060;-76
2022/10/25 13:17:14;;;;;;;10.15;4.75;;;;;;;15.68;91.53;101516.38;5056979;28;20033;-76
2022/10/25 13:19:40;;;;;;;10.32;4.43;;;;;;;15.63;89.63;101517.56;5059698;28;20032;-75
2022/10/25 13:22:10;;;;;;;10.82;4.47;;;;;;;15.55;92.01;101515.91;5061076;28;20028;-75
2022/10/25 13:24:41;;;;;;;16.73;5.07;;;;;;;15.69;89.17;101515.19;5058670;28;20056;-76
2022/10/25 13:27:12;;;;;;;8.93;3.72;;;;;;;15.60;89.23;101519.19;5061391;28;20024;-76
2022/10/25 13:30:00;;;;;;;10.85;4.03;;;;;;;15.77;89.41;101512.00;5063195;28;20098;-76
2022/10/25 13:32:26;;;;;;;8.07;4.38;;;;;;;15.70;89.63;101525.25;5065553;28;20650;-76
2022/10/25 13:34:51;;;;;;;7.13;4.18;;;;;;;15.69;90.05;101509.53;5047738;28;20044;-75
2022/10/25 13:37:32;;;;;;;9.82;4.22;;;;;;;15.54;89.74;101520.75;5058098;28;20030;-75
2022/10/25 13:39:59;;;;;;;10.52;4.80;;;;;;;15.62;88.67;101519.59;5059517;28;20020;-75
2022/10/25 13:42:35;;;;;;;10.60;5.43;;;;;;;15.64;88.44;101520.00;5059074;28;20051;-76
2022/10/25 13:45:03;;;;;;;11.45;4.20;;;;;;;15.56;92.26;101512.72;5044964;28;20492;-76
2022/10/25 13:47:44;;;;;;;12.40;4.68;;;;;;;15.73;89.89;101510.38;5061723;28;20056;-75
2022/10/25 13:50:32;;;;;;;12.50;4.90;;;;;;;15.71;89.03;101524.84;5064138;28;20417;-75
2022/10/25 13:53:24;;;;;;;11.43;4.00;;;;;;;15.74;88.33;101523.28;5037776;28;20048;-75
2022/10/25 13:55:57;;;;;;;7.47;4.65;;;;;;;15.72;89.40;101522.88;5064142;28;20076;-75
2022/10/25 13:58:28;;;;;;;11.15;4.85;;;;;;;15.60;90.93;101519.19;5060585;28;20705;-75
2022/10/25 14:01:17;;;;;;;6.03;4.10;;;;;;;15.57;90.23;101519.97;5060024;28;20484;-76
2022/10/25 14:04:00;;;;;;;10.05;5.13;;;;;;;15.55;88.51;101528.00;5059847;28;20472;-75
2022/10/25 14:06:39;;;;;;;8.35;4.65;;;;;;;15.51;91.84;101515.09;5062052;28;20035;-75
2022/10/25 14:09:33;;;;;;;11.25;5.15;;;;;;;15.40;91.19;101515.06;5056172;28;20021;-75
2022/10/25 14:11:58;;;;;;;9.25;4.78;;;;;;;15.45;90.54;101517.47;5038393;28;20127;-75
2022/10/25 14:14:46;;;;;;;9.13;4.93;;;;;;;15.49;90.27;101518.31;5064533;28;20064;-76
2022/10/25 14:17:26;;;;;;;9.35;5.13;;;;;;;15.56;90.55;101518.34;5062364;28;20067;-77
2022/10/25 14:19:56;;;;;;;15.50;5.72;;;;;;;15.56;91.73;101521.19;5062349;28;20135;-76
2022/10/25 14:22:35;;;;;;;12.13;5.20;;;;;;;15.58;91.62;101515.94;5063170;28;20135;-76
2022/10/25 14:25:06;;;;;;;13.13;6.22;;;;;;;15.47;92.87;101515.06;5063007;28;20079;-76
2022/10/25 14:27:34;;;;;;;10.73;5.68;;;;;;;15.46;92.43;101513.47;5058183;28;20028;-76
2022/10/25 14:30:25;;;;;;;13.63;6.65;;;;;;;15.46;91.43;101513.47;5058747;28;20642;-76
2022/10/25 14:32:54;;;;;;;9.63;6.28;;;;;;;15.50;91.81;101507.84;5057090;28;20153;-76
2022/10/25 14:35:21;;;;;;;15.02;6.72;;;;;;;15.44;91.37;101516.69;5061982;28;20032;-76
2022/10/25 14:37:47;;;;;;;9.70;6.00;;;;;;;15.46;92.74;101513.47;5062121;28;20024;-76
2022/10/25 14:40:23;;;;;;;12.00;6.00;;;;;;;15.46;92.29;101507.84;5063203;28;20028;-76
2022/10/25 14:42:49;;;;;;;10.00;6.43;;;;;;;15.50;91.66;101514.28;5061578;28;20491;-76
2022/10/25 14:45:33;;;;;;;10.95;7.03;;;;;;;15.47;91.67;101514.28;5062230;28;20028;-76
2022/10/25 14:48:07;;;;;;;13.82;6.68;;;;;;;15.46;90.58;101513.47;5055298;28;20075;-76
2022/10/25 14:50:32;;;;;;;11.40;7.10;;;;;;;15.35;91.63;101509.81;5062900;28;20029;-76
2022/10/25 14:52:58;;;;;;;13.07;7.43;;;;;;;15.35;91.65;101509.81;5057773;28;20035;-75
2022/10/25 14:55:29;;;;;;;13.90;7.40;;;;;;;15.27;93.06;101506.13;5061941;28;20060;-75
2022/10/25 14:57:56;;;;;;;12.43;7.85;;;;;;;15.30;92.20;101504.53;5060975;28;20048;-76
2022/10/25 15:00:23;;;;;;;13.10;7.82;;;;;;;15.35;91.06;101512.63;5059431;28;20042;-75
2022/10/25 15:02:54;;;;;;;16.67;7.90;;;;;;;15.39;91.64;101499.31;5061722;28;20047;-76
2022/10/25 15:05:22;;;;;;;14.20;6.88;;;;;;;15.35;91.58;101504.97;5061460;28;20045;-76
2022/10/25 15:07:52;;;;;;;16.15;8.05;;;;;;;15.41;91.50;101505.38;5059038;28;20035;-75
2022/10/25 15:10:41;;;;;;;13.40;7.28;;;;;;;15.48;91.77;101502.59;5057956;28;20121;-76
2022/10/25 15:13:22;;;;;;;14.40;7.70;;;;;;;15.52;92.07;101500.59;5061165;28;20434;-76
2022/10/25 15:15:52;;;;;;;14.15;7.53;;;;;;;15.47;91.35;101500.97;5060310;28;20104;-75
2022/10/25 15:18:38;;;;;;;10.60;7.32;;;;;;;15.48;91.54;101504.63;5063493;28;20032;-76
2022/10/25 15:21:13;;;;;;;13.75;8.98;;;;;;;15.42;91.31;101495.72;5062969;28;20495;-76
2022/10/25 15:23:41;;;;;;;12.88;7.93;;;;;;;15.40;90.98;101492.50;5059590;28;20475;-75
2022/10/25 15:26:19;;;;;;;12.60;8.35;;;;;;;15.32;90.98;101496.47;5064194;28;20055;-76
2022/10/25 15:28:47;;;;;;;15.32;7.82;;;;;;;15.23;92.50;101491.19;5061325;28;20502;-76
2022/10/25 15:31:13;;;;;;;19.10;8.77;;;;;;;15.20;92.49;101494.78;5055216;28;20036;-76
2022/10/25 15:33:40;;;;;;;20.63;9.55;;;;;;;15.15;93.17;101493.16;5057710;28;20090;-76
2022/10/25 15:36:05;;;;;;;15.88;8.90;;;;;;;15.10;93.81;101495.56;5063516;28;20039;-76
2022/10/25 15:38:33;;;;;;;14.63;8.52;;;;;;;15.08;93.83;101493.13;5060644;28;20036;-76
2022/10/25 15:40:59;;;;;;;15.85;9.00;;;;;;;15.04;94.20;101481.03;5059329;28;20037;-76
2022/10/25 15:43:24;;;;;;;14.55;8.65;;;;;;;14.96;94.37;101480.16;5059859;28;20033;-75
2022/10/25 15:45:50;;;;;;;16.45;9.07;;;;;;;14.96;94.63;101487.81;5062442;28;20583;-75
2022/10/25 15:48:18;;;;;;;16.77;8.63;;;;;;;14.95;95.33;101495.47;5062592;28;20032;-76
2022/10/25 15:50:47;;;;;;;15.00;9.43;;;;;;;14.84;95.82;101481.31;5060838;28;20036;-76
2022/10/25 15:53:13;;;;;;;17.58;9.25;;;;;;;14.82;95.54;101492.19;5062003;28;20028;-76
2022/10/25 15:55:38;;;;;;;13.65;7.97;;;;;;;14.85;95.64;101499.03;5064647;28;20098;-76
2022/10/25 15:58:03;;;;;;;13.32;7.78;;;;;;;14.84;97.66;101495.41;5058450;28;20033;-76
2022/10/25 16:00:33;;;;;;;17.58;8.00;;;;;;;14.70;96.36;101494.50;5058262;28;20043;-75
2022/10/25 16:02:58;;;;;;;13.57;8.15;;;;;;;14.70;97.28;101500.16;5054163;28;20040;-77
2022/10/25 16:05:33;;;;;;;19.83;9.00;;;;;;;14.67;95.94;101504.53;5053518;28;20028;-76
2022/10/25 16:07:59;;;;;;;16.48;9.23;;;;;;;14.67;96.63;101510.16;5055341;28;20372;-76
2022/10/25 16:10:26;;;;;;;12.38;9.10;;;;;;;14.68;96.75;101505.34;5053373;28;20303;-75
2022/10/25 16:12:56;;;;;;;10.43;8.07;;;;;;;14.64;97.60;101499.69;5052328;28;20054;-76
2022/10/25 16:15:22;;;;;;;15.43;8.30;;;;;;;14.56;98.29;101501.63;5056544;28;20035;-76
2022/10/25 16:17:48;;;;;;;16.63;8.88;;;;;;;14.55;98.03;101510.47;5058384;28;20025;-76
2022/10/25 16:20:25;;;;;;;10.57;7.07;;;;;;;14.50;98.94;101503.16;5058321;28;20502;-75
2022/10/25 16:22:51;;;;;;;16.48;7.75;;;;;;;14.44;99.61;101497.09;5056809;28;20071;-76
2022/10/25 16:25:18;;;;;;;15.90;7.47;;;;;;;14.41;98.51;101506.31;5056479;28;20044;-75
2022/10/25 16:27:47;;;;;;;14.02;7.75;;;;;;;14.48;100.00;101494.28;5058934;28;20095;-76
2022/10/25 16:30:15;;;;;;;12.85;7.45;;;;;;;14.49;100.00;101500.75;5055910;28;20021;-75
2022/10/25 16:32:41;;;;;;;14.00;8.25;;;;;;;14.47;99.81;101503.16;5055247;28;20030;-76
2022/10/25 16:35:07;;;;;;;9.02;7.25;;;;;;;14.36;100.00;101503.88;5057730;28;20483;-75
2022/10/25 16:37:33;;;;;;;14.48;8.35;;;;;;;14.35;100.00;101502.22;5059467;28;20090;-75
2022/10/25 16:39:58;;;;;;;13.30;7.95;;;;;;;14.36;100.00;101497.44;5055285;28;20024;-76
2022/10/25 16:42:26;;;;;;;72.10;35.67;;;;;;;15.22;100.00;101510.13;5058246;28;20459;-76